sensor_id;sensor_type;location;lat;lon;timestamp;P1;durP1;ratioP1;P2;durP2;ratioP2
64297;SDS011;50639;53.270;7.956;2023-10-13T00:02:03;33.05;;;21.33;;
64297;SDS011;50639;53.270;7.956;2023-10-13T00:04:33;31.33;;;22.77;;
64297;SDS011;50639;53.270;7.956;2023-10-13T00:07:00;31.85;;;21.77;;
64297;SDS011;50639;53.270;7.956;2023-10-13T00:09:27;32.40;;;23.13;;
64297;SDS011;50639;53.270;7.956;2023-10-13T00:12:03;36.72;;;23.85;;
64297;SDS011;50639;53.270;7.956;2023-10-13T00:14:33;42.10;;;27.63;;
64297;SDS011;50639;53.270;7.956;2023-10-13T00:17:02;39.83;;;24.55;;
64297;SDS011;50639;53.270;7.956;2023-10-13T00:19:30;41.58;;;25.30;;
64297;SDS011;50639;53.270;7.956;2023-10-13T00:22:10;41.72;;;25.58;;
64297;SDS011;50639;53.270;7.956;2023-10-13T00:24:37;33.05;;;24.33;;
64297;SDS011;50639;53.270;7.956;2023-10-13T00:27:17;35.83;;;24.92;;
64297;SDS011;50639;53.270;7.956;2023-10-13T00:29:58;40.75;;;25.52;;
64297;SDS011;50639;53.270;7.956;2023-10-13T00:33:00;44.38;;;27.38;;
64297;SDS011;50639;53.270;7.956;2023-10-13T00:35:28;46.65;;;28.38;;
64297;SDS011;50639;53.270;7.956;2023-10-13T00:37:55;43.25;;;27.63;;
64297;SDS011;50639;53.270;7.956;2023-10-13T00:40:32;62.40;;;33.40;;
64297;SDS011;50639;53.270;7.956;2023-10-13T00:42:58;42.85;;;26.25;;
64297;SDS011;50639;53.270;7.956;2023-10-13T00:45:43;52.15;;;26.25;;
64297;SDS011;50639;53.270;7.956;2023-10-13T00:48:13;42.17;;;27.25;;
64297;SDS011;50639;53.270;7.956;2023-10-13T00:53:07;38.73;;;26.30;;
64297;SDS011;50639;53.270;7.956;2023-10-13T00:55:34;46.28;;;27.83;;
64297;SDS011;50639;53.270;7.956;2023-10-13T00:58:00;50.67;;;30.85;;
64297;SDS011;50639;53.270;7.956;2023-10-13T01:00:32;42.53;;;25.10;;
64297;SDS011;50639;53.270;7.956;2023-10-13T01:02:58;44.83;;;27.33;;
64297;SDS011;50639;53.270;7.956;2023-10-13T01:05:31;47.13;;;30.15;;
64297;SDS011;50639;53.270;7.956;2023-10-13T01:08:00;46.67;;;31.20;;
64297;SDS011;50639;53.270;7.956;2023-10-13T01:10:26;46.72;;;28.85;;
64297;SDS011;50639;53.270;7.956;2023-10-13T01:12:53;40.30;;;28.33;;
64297;SDS011;50639;53.270;7.956;2023-10-13T01:15:19;34.20;;;24.50;;
64297;SDS011;50639;53.270;7.956;2023-10-13T01:17:48;29.65;;;21.33;;
64297;SDS011;50639;53.270;7.956;2023-10-13T01:20:14;41.20;;;28.27;;
64297;SDS011;50639;53.270;7.956;2023-10-13T01:22:53;46.20;;;28.20;;
64297;SDS011;50639;53.270;7.956;2023-10-13T01:25:25;45.30;;;28.08;;
64297;SDS011;50639;53.270;7.956;2023-10-13T01:27:52;39.33;;;26.77;;
64297;SDS011;50639;53.270;7.956;2023-10-13T01:30:17;40.50;;;27.30;;
64297;SDS011;50639;53.270;7.956;2023-10-13T01:32:51;43.33;;;30.65;;
64297;SDS011;50639;53.270;7.956;2023-10-13T01:35:18;40.60;;;27.98;;
64297;SDS011;50639;53.270;7.956;2023-10-13T01:37:44;34.40;;;26.45;;
64297;SDS011;50639;53.270;7.956;2023-10-13T01:40:11;45.25;;;30.95;;
64297;SDS011;50639;53.270;7.956;2023-10-13T01:42:38;63.78;;;35.40;;
64297;SDS011;50639;53.270;7.956;2023-10-13T01:45:04;40.33;;;27.65;;
64297;SDS011;50639;53.270;7.956;2023-10-13T01:47:31;37.58;;;26.52;;
64297;SDS011;50639;53.270;7.956;2023-10-13T01:49:58;40.13;;;29.20;;
64297;SDS011;50639;53.270;7.956;2023-10-13T01:52:32;38.33;;;27.17;;
64297;SDS011;50639;53.270;7.956;2023-10-13T01:54:58;44.17;;;28.60;;
64297;SDS011;50639;53.270;7.956;2023-10-13T01:57:26;37.88;;;25.80;;
64297;SDS011;50639;53.270;7.956;2023-10-13T01:59:53;34.63;;;24.02;;
64297;SDS011;50639;53.270;7.956;2023-10-13T02:02:20;38.38;;;24.88;;
64297;SDS011;50639;53.270;7.956;2023-10-13T02:04:54;27.08;;;20.55;;
64297;SDS011;50639;53.270;7.956;2023-10-13T02:07:25;40.22;;;27.70;;
64297;SDS011;50639;53.270;7.956;2023-10-13T02:09:59;49.28;;;29.80;;
64297;SDS011;50639;53.270;7.956;2023-10-13T02:12:29;45.08;;;29.55;;
64297;SDS011;50639;53.270;7.956;2023-10-13T02:15:03;39.83;;;29.92;;
64297;SDS011;50639;53.270;7.956;2023-10-13T02:17:30;42.25;;;28.88;;
64297;SDS011;50639;53.270;7.956;2023-10-13T02:20:05;53.67;;;32.35;;
64297;SDS011;50639;53.270;7.956;2023-10-13T02:22:33;41.65;;;31.75;;
64297;SDS011;50639;53.270;7.956;2023-10-13T02:24:59;49.75;;;31.58;;
64297;SDS011;50639;53.270;7.956;2023-10-13T02:27:34;53.08;;;33.15;;
64297;SDS011;50639;53.270;7.956;2023-10-13T02:30:07;55.47;;;33.95;;
64297;SDS011;50639;53.270;7.956;2023-10-13T02:32:39;47.75;;;32.10;;
64297;SDS011;50639;53.270;7.956;2023-10-13T02:35:08;37.45;;;29.17;;
64297;SDS011;50639;53.270;7.956;2023-10-13T02:37:40;50.35;;;30.88;;
64297;SDS011;50639;53.270;7.956;2023-10-13T02:40:10;47.83;;;33.15;;
64297;SDS011;50639;53.270;7.956;2023-10-13T02:42:36;37.90;;;28.13;;
64297;SDS011;50639;53.270;7.956;2023-10-13T02:45:02;40.33;;;28.80;;
64297;SDS011;50639;53.270;7.956;2023-10-13T02:47:29;39.03;;;28.23;;
64297;SDS011;50639;53.270;7.956;2023-10-13T02:49:57;45.78;;;32.20;;
64297;SDS011;50639;53.270;7.956;2023-10-13T02:52:26;33.05;;;25.80;;
64297;SDS011;50639;53.270;7.956;2023-10-13T02:54:52;71.43;;;40.60;;
64297;SDS011;50639;53.270;7.956;2023-10-13T02:57:17;50.60;;;33.42;;
64297;SDS011;50639;53.270;7.956;2023-10-13T02:59:43;43.17;;;29.90;;
64297;SDS011;50639;53.270;7.956;2023-10-13T03:02:13;35.53;;;25.65;;
64297;SDS011;50639;53.270;7.956;2023-10-13T03:04:57;37.42;;;27.10;;
64297;SDS011;50639;53.270;7.956;2023-10-13T03:07:35;33.15;;;26.15;;
64297;SDS011;50639;53.270;7.956;2023-10-13T03:10:02;42.77;;;27.70;;
64297;SDS011;50639;53.270;7.956;2023-10-13T03:12:37;31.00;;;26.70;;
64297;SDS011;50639;53.270;7.956;2023-10-13T03:17:43;40.78;;;28.00;;
64297;SDS011;50639;53.270;7.956;2023-10-13T03:20:09;38.97;;;27.73;;
64297;SDS011;50639;53.270;7.956;2023-10-13T03:22:40;35.55;;;26.48;;
64297;SDS011;50639;53.270;7.956;2023-10-13T03:25:06;34.83;;;24.33;;
64297;SDS011;50639;53.270;7.956;2023-10-13T03:27:34;40.65;;;27.95;;
64297;SDS011;50639;53.270;7.956;2023-10-13T03:30:20;76.32;;;41.58;;
64297;SDS011;50639;53.270;7.956;2023-10-13T03:32:47;41.72;;;29.50;;
64297;SDS011;50639;53.270;7.956;2023-10-13T03:35:20;40.58;;;26.65;;
64297;SDS011;50639;53.270;7.956;2023-10-13T03:37:56;38.38;;;26.50;;
64297;SDS011;50639;53.270;7.956;2023-10-13T03:40:22;37.75;;;27.33;;
64297;SDS011;50639;53.270;7.956;2023-10-13T03:42:48;40.40;;;28.38;;
64297;SDS011;50639;53.270;7.956;2023-10-13T03:45:29;35.80;;;26.52;;
64297;SDS011;50639;53.270;7.956;2023-10-13T03:48:02;39.60;;;29.27;;
64297;SDS011;50639;53.270;7.956;2023-10-13T03:50:34;37.35;;;26.13;;
64297;SDS011;50639;53.270;7.956;2023-10-13T03:55:27;33.58;;;23.90;;
64297;SDS011;50639;53.270;7.956;2023-10-13T03:57:53;39.67;;;28.58;;
64297;SDS011;50639;53.270;7.956;2023-10-13T04:00:22;30.08;;;24.08;;
64297;SDS011;50639;53.270;7.956;2023-10-13T04:02:53;48.30;;;30.40;;
64297;SDS011;50639;53.270;7.956;2023-10-13T04:05:28;34.22;;;24.05;;
64297;SDS011;50639;53.270;7.956;2023-10-13T04:08:03;34.80;;;24.35;;
64297;SDS011;50639;53.270;7.956;2023-10-13T04:10:47;43.13;;;27.90;;
64297;SDS011;50639;53.270;7.956;2023-10-13T04:13:19;37.92;;;26.88;;
64297;SDS011;50639;53.270;7.956;2023-10-13T04:16:23;25.95;;;21.70;;
64297;SDS011;50639;53.270;7.956;2023-10-13T04:18:48;29.60;;;23.67;;
64297;SDS011;50639;53.270;7.956;2023-10-13T04:21:23;33.05;;;24.95;;
64297;SDS011;50639;53.270;7.956;2023-10-13T04:24:04;29.30;;;19.67;;
64297;SDS011;50639;53.270;7.956;2023-10-13T04:26:42;33.10;;;23.42;;
64297;SDS011;50639;53.270;7.956;2023-10-13T04:29:31;26.38;;;21.45;;
64297;SDS011;50639;53.270;7.956;2023-10-13T04:32:15;35.17;;;23.10;;
64297;SDS011;50639;53.270;7.956;2023-10-13T04:34:56;32.05;;;23.60;;
64297;SDS011;50639;53.270;7.956;2023-10-13T04:37:37;33.60;;;24.17;;
64297;SDS011;50639;53.270;7.956;2023-10-13T04:40:20;39.90;;;22.15;;
64297;SDS011;50639;53.270;7.956;2023-10-13T04:42:53;28.80;;;20.13;;
64297;SDS011;50639;53.270;7.956;2023-10-13T04:45:22;30.33;;;22.05;;
64297;SDS011;50639;53.270;7.956;2023-10-13T04:47:57;29.63;;;21.35;;
64297;SDS011;50639;53.270;7.956;2023-10-13T04:50:43;24.67;;;19.55;;
64297;SDS011;50639;53.270;7.956;2023-10-13T04:53:15;25.13;;;17.30;;
64297;SDS011;50639;53.270;7.956;2023-10-13T04:56:20;42.17;;;26.88;;
64297;SDS011;50639;53.270;7.956;2023-10-13T04:59:04;29.98;;;22.63;;
64297;SDS011;50639;53.270;7.956;2023-10-13T05:01:48;37.70;;;25.52;;
64297;SDS011;50639;53.270;7.956;2023-10-13T05:04:22;37.08;;;23.73;;
64297;SDS011;50639;53.270;7.956;2023-10-13T05:07:08;27.17;;;18.92;;
64297;SDS011;50639;53.270;7.956;2023-10-13T05:09:52;34.38;;;22.80;;
64297;SDS011;50639;53.270;7.956;2023-10-13T05:12:36;49.25;;;29.70;;
64297;SDS011;50639;53.270;7.956;2023-10-13T05:15:20;22.70;;;19.17;;
64297;SDS011;50639;53.270;7.956;2023-10-13T05:18:04;38.67;;;24.65;;
64297;SDS011;50639;53.270;7.956;2023-10-13T05:20:48;33.08;;;23.17;;
64297;SDS011;50639;53.270;7.956;2023-10-13T05:23:32;36.97;;;24.48;;
64297;SDS011;50639;53.270;7.956;2023-10-13T05:26:16;27.13;;;19.50;;
64297;SDS011;50639;53.270;7.956;2023-10-13T05:29:00;29.88;;;22.10;;
64297;SDS011;50639;53.270;7.956;2023-10-13T05:31:45;35.65;;;23.67;;
64297;SDS011;50639;53.270;7.956;2023-10-13T05:34:29;24.52;;;19.08;;
64297;SDS011;50639;53.270;7.956;2023-10-13T05:37:13;31.60;;;22.10;;
64297;SDS011;50639;53.270;7.956;2023-10-13T05:39:57;29.75;;;21.38;;
64297;SDS011;50639;53.270;7.956;2023-10-13T05:42:41;26.20;;;20.27;;
64297;SDS011;50639;53.270;7.956;2023-10-13T05:45:25;34.88;;;24.50;;
64297;SDS011;50639;53.270;7.956;2023-10-13T05:48:05;29.50;;;22.92;;
64297;SDS011;50639;53.270;7.956;2023-10-13T05:50:39;26.42;;;20.35;;
64297;SDS011;50639;53.270;7.956;2023-10-13T05:53:27;38.83;;;23.02;;
64297;SDS011;50639;53.270;7.956;2023-10-13T05:56:11;26.65;;;21.20;;
64297;SDS011;50639;53.270;7.956;2023-10-13T05:58:55;35.58;;;25.38;;
64297;SDS011;50639;53.270;7.956;2023-10-13T06:01:56;28.42;;;22.05;;
64297;SDS011;50639;53.270;7.956;2023-10-13T06:04:40;27.63;;;21.73;;
64297;SDS011;50639;53.270;7.956;2023-10-13T06:07:24;27.60;;;22.13;;
64297;SDS011;50639;53.270;7.956;2023-10-13T06:10:09;32.17;;;23.45;;
64297;SDS011;50639;53.270;7.956;2023-10-13T06:12:53;29.02;;;20.80;;
64297;SDS011;50639;53.270;7.956;2023-10-13T06:15:37;27.70;;;20.85;;
64297;SDS011;50639;53.270;7.956;2023-10-13T06:18:22;29.33;;;18.90;;
64297;SDS011;50639;53.270;7.956;2023-10-13T06:21:08;30.83;;;19.80;;
64297;SDS011;50639;53.270;7.956;2023-10-13T06:23:52;33.08;;;20.77;;
64297;SDS011;50639;53.270;7.956;2023-10-13T06:26:36;23.10;;;17.88;;
64297;SDS011;50639;53.270;7.956;2023-10-13T06:29:20;20.17;;;17.08;;
64297;SDS011;50639;53.270;7.956;2023-10-13T06:31:46;24.42;;;17.33;;
64297;SDS011;50639;53.270;7.956;2023-10-13T06:34:13;19.95;;;15.43;;
64297;SDS011;50639;53.270;7.956;2023-10-13T06:36:40;19.55;;;14.57;;
64297;SDS011;50639;53.270;7.956;2023-10-13T06:39:06;24.33;;;16.05;;
64297;SDS011;50639;53.270;7.956;2023-10-13T06:41:51;16.95;;;13.00;;
64297;SDS011;50639;53.270;7.956;2023-10-13T06:44:16;16.90;;;12.57;;
64297;SDS011;50639;53.270;7.956;2023-10-13T06:46:42;15.95;;;12.13;;
64297;SDS011;50639;53.270;7.956;2023-10-13T06:49:08;16.80;;;12.38;;
64297;SDS011;50639;53.270;7.956;2023-10-13T06:51:35;17.48;;;12.75;;
64297;SDS011;50639;53.270;7.956;2023-10-13T06:56:28;15.32;;;11.40;;
64297;SDS011;50639;53.270;7.956;2023-10-13T06:58:54;19.80;;;12.60;;
64297;SDS011;50639;53.270;7.956;2023-10-13T07:01:29;18.42;;;11.20;;
64297;SDS011;50639;53.270;7.956;2023-10-13T07:04:04;17.67;;;9.68;;
64297;SDS011;50639;53.270;7.956;2023-10-13T07:06:38;14.10;;;9.40;;
64297;SDS011;50639;53.270;7.956;2023-10-13T07:09:08;13.90;;;8.95;;
64297;SDS011;50639;53.270;7.956;2023-10-13T07:11:40;17.60;;;11.48;;
64297;SDS011;50639;53.270;7.956;2023-10-13T07:14:08;9.52;;;7.05;;
64297;SDS011;50639;53.270;7.956;2023-10-13T07:16:55;12.98;;;7.90;;
64297;SDS011;50639;53.270;7.956;2023-10-13T07:19:25;13.88;;;8.75;;
64297;SDS011;50639;53.270;7.956;2023-10-13T07:21:54;12.40;;;8.45;;
64297;SDS011;50639;53.270;7.956;2023-10-13T07:24:27;9.32;;;6.07;;
64297;SDS011;50639;53.270;7.956;2023-10-13T07:26:57;13.52;;;8.93;;
64297;SDS011;50639;53.270;7.956;2023-10-13T07:29:28;14.38;;;9.32;;
64297;SDS011;50639;53.270;7.956;2023-10-13T07:31:54;10.90;;;7.65;;
64297;SDS011;50639;53.270;7.956;2023-10-13T07:34:20;11.60;;;7.65;;
64297;SDS011;50639;53.270;7.956;2023-10-13T07:36:57;12.10;;;6.55;;
64297;SDS011;50639;53.270;7.956;2023-10-13T07:39:29;10.45;;;6.43;;
64297;SDS011;50639;53.270;7.956;2023-10-13T07:42:04;9.80;;;6.18;;
64297;SDS011;50639;53.270;7.956;2023-10-13T07:44:48;10.70;;;6.22;;
64297;SDS011;50639;53.270;7.956;2023-10-13T07:47:13;9.60;;;5.18;;
64297;SDS011;50639;53.270;7.956;2023-10-13T07:49:43;11.90;;;6.03;;
64297;SDS011;50639;53.270;7.956;2023-10-13T07:52:09;9.10;;;5.60;;
64297;SDS011;50639;53.270;7.956;2023-10-13T07:54:45;12.65;;;6.75;;
64297;SDS011;50639;53.270;7.956;2023-10-13T07:57:29;8.25;;;4.80;;
64297;SDS011;50639;53.270;7.956;2023-10-13T07:59:55;7.80;;;5.15;;
64297;SDS011;50639;53.270;7.956;2023-10-13T08:02:36;13.52;;;5.22;;
64297;SDS011;50639;53.270;7.956;2023-10-13T08:05:15;10.88;;;5.30;;
64297;SDS011;50639;53.270;7.956;2023-10-13T08:08:04;10.80;;;5.75;;
64297;SDS011;50639;53.270;7.956;2023-10-13T08:10:39;9.98;;;5.15;;
64297;SDS011;50639;53.270;7.956;2023-10-13T08:13:07;12.05;;;5.47;;
64297;SDS011;50639;53.270;7.956;2023-10-13T08:15:39;8.05;;;4.38;;
64297;SDS011;50639;53.270;7.956;2023-10-13T08:18:12;11.48;;;4.78;;
64297;SDS011;50639;53.270;7.956;2023-10-13T08:20:56;9.95;;;4.55;;
64297;SDS011;50639;53.270;7.956;2023-10-13T08:23:31;10.77;;;5.05;;
64297;SDS011;50639;53.270;7.956;2023-10-13T08:26:25;11.30;;;5.47;;
64297;SDS011;50639;53.270;7.956;2023-10-13T08:29:02;10.23;;;4.90;;
64297;SDS011;50639;53.270;7.956;2023-10-13T08:31:44;15.15;;;4.95;;
64297;SDS011;50639;53.270;7.956;2023-10-13T08:34:35;11.50;;;4.65;;
64297;SDS011;50639;53.270;7.956;2023-10-13T08:37:08;11.93;;;4.90;;
64297;SDS011;50639;53.270;7.956;2023-10-13T08:39:49;11.32;;;4.35;;
64297;SDS011;50639;53.270;7.956;2023-10-13T08:42:28;16.23;;;5.25;;
64297;SDS011;50639;53.270;7.956;2023-10-13T08:45:07;10.93;;;4.47;;
64297;SDS011;50639;53.270;7.956;2023-10-13T08:47:52;12.65;;;5.10;;
64297;SDS011;50639;53.270;7.956;2023-10-13T08:50:34;12.98;;;5.28;;
64297;SDS011;50639;53.270;7.956;2023-10-13T08:53:16;11.07;;;4.95;;
64297;SDS011;50639;53.270;7.956;2023-10-13T08:56:10;17.20;;;5.20;;
64297;SDS011;50639;53.270;7.956;2023-10-13T08:58:46;14.50;;;5.50;;
64297;SDS011;50639;53.270;7.956;2023-10-13T09:01:19;14.90;;;5.57;;
64297;SDS011;50639;53.270;7.956;2023-10-13T09:04:09;11.82;;;4.80;;
64297;SDS011;50639;53.270;7.956;2023-10-13T09:06:55;14.45;;;4.85;;
64297;SDS011;50639;53.270;7.956;2023-10-13T09:09:31;13.40;;;5.45;;
64297;SDS011;50639;53.270;7.956;2023-10-13T09:15:01;11.95;;;5.28;;
64297;SDS011;50639;53.270;7.956;2023-10-13T09:17:48;15.23;;;5.78;;
64297;SDS011;50639;53.270;7.956;2023-10-13T09:20:28;12.88;;;4.97;;
64297;SDS011;50639;53.270;7.956;2023-10-13T09:23:18;17.27;;;5.38;;
64297;SDS011;50639;53.270;7.956;2023-10-13T09:25:50;17.77;;;5.80;;
64297;SDS011;50639;53.270;7.956;2023-10-13T09:28:34;15.35;;;5.20;;
64297;SDS011;50639;53.270;7.956;2023-10-13T09:31:02;13.20;;;5.60;;
64297;SDS011;50639;53.270;7.956;2023-10-13T09:33:28;13.27;;;5.63;;
64297;SDS011;50639;53.270;7.956;2023-10-13T09:35:58;14.63;;;5.53;;
64297;SDS011;50639;53.270;7.956;2023-10-13T09:38:27;16.55;;;5.30;;
64297;SDS011;50639;53.270;7.956;2023-10-13T09:40:54;18.40;;;5.97;;
64297;SDS011;50639;53.270;7.956;2023-10-13T09:43:23;14.02;;;5.72;;
64297;SDS011;50639;53.270;7.956;2023-10-13T09:45:58;18.40;;;6.63;;
64297;SDS011;50639;53.270;7.956;2023-10-13T09:48:37;14.05;;;5.90;;
64297;SDS011;50639;53.270;7.956;2023-10-13T09:51:16;13.30;;;5.63;;
64297;SDS011;50639;53.270;7.956;2023-10-13T09:57:14;22.20;;;7.60;;
64297;SDS011;50639;53.270;7.956;2023-10-13T09:59:55;19.13;;;6.32;;
64297;SDS011;50639;53.270;7.956;2023-10-13T10:02:36;16.83;;;6.40;;
64297;SDS011;50639;53.270;7.956;2023-10-13T10:05:08;18.67;;;6.18;;
64297;SDS011;50639;53.270;7.956;2023-10-13T10:07:39;16.77;;;6.40;;
64297;SDS011;50639;53.270;7.956;2023-10-13T10:10:09;15.27;;;6.28;;
64297;SDS011;50639;53.270;7.956;2023-10-13T10:15:46;14.82;;;5.78;;
64297;SDS011;50639;53.270;7.956;2023-10-13T10:18:22;20.02;;;6.50;;
64297;SDS011;50639;53.270;7.956;2023-10-13T10:20:50;13.80;;;6.00;;
64297;SDS011;50639;53.270;7.956;2023-10-13T10:23:24;11.85;;;5.93;;
64297;SDS011;50639;53.270;7.956;2023-10-13T10:25:55;16.67;;;6.07;;
64297;SDS011;50639;53.270;7.956;2023-10-13T10:28:40;17.23;;;5.93;;
64297;SDS011;50639;53.270;7.956;2023-10-13T10:31:08;16.67;;;6.20;;
64297;SDS011;50639;53.270;7.956;2023-10-13T10:33:42;18.98;;;6.32;;
64297;SDS011;50639;53.270;7.956;2023-10-13T10:36:08;15.70;;;6.57;;
64297;SDS011;50639;53.270;7.956;2023-10-13T10:38:52;15.27;;;5.72;;
64297;SDS011;50639;53.270;7.956;2023-10-13T10:41:27;19.13;;;6.00;;
64297;SDS011;50639;53.270;7.956;2023-10-13T10:44:05;14.82;;;5.03;;
64297;SDS011;50639;53.270;7.956;2023-10-13T10:46:35;15.43;;;6.32;;
64297;SDS011;50639;53.270;7.956;2023-10-13T10:49:07;17.20;;;6.57;;
64297;SDS011;50639;53.270;7.956;2023-10-13T10:51:33;16.25;;;6.30;;
64297;SDS011;50639;53.270;7.956;2023-10-13T10:54:17;16.13;;;7.05;;
64297;SDS011;50639;53.270;7.956;2023-10-13T10:56:45;19.02;;;7.85;;
64297;SDS011;50639;53.270;7.956;2023-10-13T10:59:17;24.05;;;6.22;;
64297;SDS011;50639;53.270;7.956;2023-10-13T11:01:44;14.48;;;5.60;;
64297;SDS011;50639;53.270;7.956;2023-10-13T11:04:16;16.48;;;6.10;;
64297;SDS011;50639;53.270;7.956;2023-10-13T11:09:24;21.92;;;8.73;;
64297;SDS011;50639;53.270;7.956;2023-10-13T11:12:12;21.88;;;7.07;;
64297;SDS011;50639;53.270;7.956;2023-10-13T11:14:48;15.10;;;5.68;;
64297;SDS011;50639;53.270;7.956;2023-10-13T11:17:21;17.70;;;5.97;;
64297;SDS011;50639;53.270;7.956;2023-10-13T11:20:10;18.73;;;5.80;;
64297;SDS011;50639;53.270;7.956;2023-10-13T11:22:41;20.67;;;6.03;;
64297;SDS011;50639;53.270;7.956;2023-10-13T11:25:19;18.15;;;5.47;;
64297;SDS011;50639;53.270;7.956;2023-10-13T11:27:47;18.60;;;5.93;;
64297;SDS011;50639;53.270;7.956;2023-10-13T11:30:16;16.00;;;5.28;;
64297;SDS011;50639;53.270;7.956;2023-10-13T11:32:57;14.18;;;5.63;;
64297;SDS011;50639;53.270;7.956;2023-10-13T11:35:23;14.88;;;5.45;;
64297;SDS011;50639;53.270;7.956;2023-10-13T11:37:49;15.27;;;5.22;;
64297;SDS011;50639;53.270;7.956;2023-10-13T11:40:22;19.40;;;6.43;;
64297;SDS011;50639;53.270;7.956;2023-10-13T11:43:07;18.35;;;6.18;;
64297;SDS011;50639;53.270;7.956;2023-10-13T11:45:39;16.42;;;5.65;;
64297;SDS011;50639;53.270;7.956;2023-10-13T11:48:41;21.77;;;5.43;;
64297;SDS011;50639;53.270;7.956;2023-10-13T11:51:09;17.45;;;5.95;;
64297;SDS011;50639;53.270;7.956;2023-10-13T11:53:42;19.52;;;5.88;;
64297;SDS011;50639;53.270;7.956;2023-10-13T11:56:10;20.17;;;6.03;;
64297;SDS011;50639;53.270;7.956;2023-10-13T11:58:36;17.20;;;6.32;;
64297;SDS011;50639;53.270;7.956;2023-10-13T12:01:02;15.13;;;6.22;;
64297;SDS011;50639;53.270;7.956;2023-10-13T12:03:40;22.52;;;6.38;;
64297;SDS011;50639;53.270;7.956;2023-10-13T12:06:32;15.25;;;5.80;;
64297;SDS011;50639;53.270;7.956;2023-10-13T12:09:02;17.33;;;6.80;;
64297;SDS011;50639;53.270;7.956;2023-10-13T12:12:04;20.80;;;6.75;;
64297;SDS011;50639;53.270;7.956;2023-10-13T12:14:29;16.83;;;5.57;;
64297;SDS011;50639;53.270;7.956;2023-10-13T12:17:03;18.08;;;6.00;;
64297;SDS011;50639;53.270;7.956;2023-10-13T12:19:36;20.20;;;5.65;;
64297;SDS011;50639;53.270;7.956;2023-10-13T12:22:01;18.02;;;6.15;;
64297;SDS011;50639;53.270;7.956;2023-10-13T12:24:32;18.70;;;6.03;;
64297;SDS011;50639;53.270;7.956;2023-10-13T12:27:04;25.10;;;6.15;;
64297;SDS011;50639;53.270;7.956;2023-10-13T12:32:12;18.48;;;8.35;;
64297;SDS011;50639;53.270;7.956;2023-10-13T12:34:39;33.78;;;12.32;;
64297;SDS011;50639;53.270;7.956;2023-10-13T12:37:23;25.23;;;6.97;;
64297;SDS011;50639;53.270;7.956;2023-10-13T12:40:04;19.65;;;6.07;;
64297;SDS011;50639;53.270;7.956;2023-10-13T12:42:49;23.45;;;6.03;;
64297;SDS011;50639;53.270;7.956;2023-10-13T12:45:38;17.38;;;6.18;;
64297;SDS011;50639;53.270;7.956;2023-10-13T12:48:25;19.15;;;6.53;;
64297;SDS011;50639;53.270;7.956;2023-10-13T12:51:09;19.58;;;5.95;;
64297;SDS011;50639;53.270;7.956;2023-10-13T12:53:53;19.20;;;6.20;;
64297;SDS011;50639;53.270;7.956;2023-10-13T12:56:19;17.87;;;6.37;;
64297;SDS011;50639;53.270;7.956;2023-10-13T12:58:53;19.08;;;6.40;;
64297;SDS011;50639;53.270;7.956;2023-10-13T13:01:19;18.60;;;5.80;;
64297;SDS011;50639;53.270;7.956;2023-10-13T13:06:23;16.20;;;6.25;;
64297;SDS011;50639;53.270;7.956;2023-10-13T13:08:58;19.50;;;6.45;;
64297;SDS011;50639;53.270;7.956;2023-10-13T13:11:25;20.30;;;6.45;;
64297;SDS011;50639;53.270;7.956;2023-10-13T13:13:50;14.38;;;6.50;;
64297;SDS011;50639;53.270;7.956;2023-10-13T13:16:16;18.92;;;6.40;;
64297;SDS011;50639;53.270;7.956;2023-10-13T13:18:49;25.35;;;6.40;;
64297;SDS011;50639;53.270;7.956;2023-10-13T13:21:15;19.80;;;6.55;;
64297;SDS011;50639;53.270;7.956;2023-10-13T13:23:52;20.23;;;6.78;;
64297;SDS011;50639;53.270;7.956;2023-10-13T13:26:21;23.58;;;7.18;;
64297;SDS011;50639;53.270;7.956;2023-10-13T13:28:47;19.10;;;7.07;;
64297;SDS011;50639;53.270;7.956;2023-10-13T13:31:17;18.58;;;6.80;;
64297;SDS011;50639;53.270;7.956;2023-10-13T13:33:43;19.15;;;6.07;;
64297;SDS011;50639;53.270;7.956;2023-10-13T13:36:09;17.85;;;6.97;;
64297;SDS011;50639;53.270;7.956;2023-10-13T13:38:41;21.27;;;6.25;;
64297;SDS011;50639;53.270;7.956;2023-10-13T13:41:13;17.58;;;6.88;;
64297;SDS011;50639;53.270;7.956;2023-10-13T13:43:43;20.00;;;6.65;;
64297;SDS011;50639;53.270;7.956;2023-10-13T13:46:15;23.88;;;7.20;;
64297;SDS011;50639;53.270;7.956;2023-10-13T13:48:42;21.13;;;7.43;;
64297;SDS011;50639;53.270;7.956;2023-10-13T13:51:08;20.73;;;6.32;;
64297;SDS011;50639;53.270;7.956;2023-10-13T13:53:43;20.80;;;7.80;;
64297;SDS011;50639;53.270;7.956;2023-10-13T13:56:15;18.88;;;6.30;;
64297;SDS011;50639;53.270;7.956;2023-10-13T14:01:09;15.55;;;5.88;;
64297;SDS011;50639;53.270;7.956;2023-10-13T14:03:40;20.85;;;6.78;;
64297;SDS011;50639;53.270;7.956;2023-10-13T14:06:15;22.48;;;6.90;;
64297;SDS011;50639;53.270;7.956;2023-10-13T14:08:49;19.83;;;6.82;;
64297;SDS011;50639;53.270;7.956;2023-10-13T14:11:24;18.90;;;6.65;;
64297;SDS011;50639;53.270;7.956;2023-10-13T14:14:03;22.73;;;6.88;;
64297;SDS011;50639;53.270;7.956;2023-10-13T14:16:50;19.85;;;6.63;;
64297;SDS011;50639;53.270;7.956;2023-10-13T14:19:16;23.05;;;6.72;;
64297;SDS011;50639;53.270;7.956;2023-10-13T14:21:58;15.18;;;7.03;;
64297;SDS011;50639;53.270;7.956;2023-10-13T14:24:24;18.92;;;6.70;;
64297;SDS011;50639;53.270;7.956;2023-10-13T14:26:54;19.60;;;7.20;;
64297;SDS011;50639;53.270;7.956;2023-10-13T14:29:21;25.15;;;6.15;;
64297;SDS011;50639;53.270;7.956;2023-10-13T14:31:46;20.02;;;7.00;;
64297;SDS011;50639;53.270;7.956;2023-10-13T14:34:14;19.20;;;6.43;;
64297;SDS011;50639;53.270;7.956;2023-10-13T14:36:40;22.30;;;6.97;;
64297;SDS011;50639;53.270;7.956;2023-10-13T14:39:06;20.02;;;6.97;;
64297;SDS011;50639;53.270;7.956;2023-10-13T14:41:35;19.08;;;6.43;;
64297;SDS011;50639;53.270;7.956;2023-10-13T14:44:01;18.85;;;6.40;;
64297;SDS011;50639;53.270;7.956;2023-10-13T14:46:30;21.25;;;6.55;;
64297;SDS011;50639;53.270;7.956;2023-10-13T14:48:56;23.17;;;7.13;;
64297;SDS011;50639;53.270;7.956;2023-10-13T14:51:21;20.83;;;7.35;;
64297;SDS011;50639;53.270;7.956;2023-10-13T14:53:47;16.08;;;6.88;;
64297;SDS011;50639;53.270;7.956;2023-10-13T14:56:16;16.40;;;6.53;;
64297;SDS011;50639;53.270;7.956;2023-10-13T14:58:42;21.48;;;7.10;;
64297;SDS011;50639;53.270;7.956;2023-10-13T15:01:12;18.08;;;6.63;;
64297;SDS011;50639;53.270;7.956;2023-10-13T15:03:50;18.00;;;7.00;;
64297;SDS011;50639;53.270;7.956;2023-10-13T15:08:50;18.58;;;7.07;;
64297;SDS011;50639;53.270;7.956;2023-10-13T15:11:16;21.33;;;6.33;;
64297;SDS011;50639;53.270;7.956;2023-10-13T15:13:43;23.00;;;7.18;;
64297;SDS011;50639;53.270;7.956;2023-10-13T15:16:15;17.90;;;6.88;;
64297;SDS011;50639;53.270;7.956;2023-10-13T15:18:45;23.70;;;7.47;;
64297;SDS011;50639;53.270;7.956;2023-10-13T15:21:32;19.80;;;6.43;;
64297;SDS011;50639;53.270;7.956;2023-10-13T15:24:00;17.63;;;6.72;;
64297;SDS011;50639;53.270;7.956;2023-10-13T15:26:32;18.08;;;6.88;;
64297;SDS011;50639;53.270;7.956;2023-10-13T15:29:03;23.20;;;7.30;;
64297;SDS011;50639;53.270;7.956;2023-10-13T15:31:34;25.20;;;6.72;;
64297;SDS011;50639;53.270;7.956;2023-10-13T15:34:03;15.88;;;7.47;;
64297;SDS011;50639;53.270;7.956;2023-10-13T15:36:48;20.08;;;7.88;;
64297;SDS011;50639;53.270;7.956;2023-10-13T15:39:17;23.73;;;8.43;;
64297;SDS011;50639;53.270;7.956;2023-10-13T15:41:49;20.55;;;7.05;;